sensor_id;sensor_type;location;lat;lon;timestamp;P1;durP1;ratioP1;P2;durP2;ratioP2
13872;SDS011;7006;51.494;11.964;2023-03-01T00:00:23;20.93;;;15.03;;
13872;SDS011;7006;51.494;11.964;2023-03-01T00:02:52;24.03;;;15.53;;
13872;SDS011;7006;51.494;11.964;2023-03-01T00:05:20;24.13;;;14.27;;
13872;SDS011;7006;51.494;11.964;2023-03-01T00:07:48;21.27;;;13.60;;
13872;SDS011;7006;51.494;11.964;2023-03-01T00:10:19;21.53;;;13.10;;
13872;SDS011;7006;51.494;11.964;2023-03-01T00:12:48;18.63;;;12.27;;
13872;SDS011;7006;51.494;11.964;2023-03-01T00:15:18;18.93;;;12.00;;
13872;SDS011;7006;51.494;11.964;2023-03-01T00:17:47;19.50;;;12.90;;
13872;SDS011;7006;51.494;11.964;2023-03-01T00:20:15;18.00;;;13.23;;
13872;SDS011;7006;51.494;11.964;2023-03-01T00:22:43;22.50;;;15.30;;
13872;SDS011;7006;51.494;11.964;2023-03-01T00:25:12;22.17;;;14.57;;
13872;SDS011;7006;51.494;11.964;2023-03-01T00:27:40;22.10;;;13.20;;
13872;SDS011;7006;51.494;11.964;2023-03-01T00:30:08;21.83;;;13.63;;
13872;SDS011;7006;51.494;11.964;2023-03-01T00:32:40;21.83;;;14.57;;
13872;SDS011;7006;51.494;11.964;2023-03-01T00:35:08;24.90;;;14.53;;
13872;SDS011;7006;51.494;11.964;2023-03-01T00:37:36;25.30;;;14.57;;
13872;SDS011;7006;51.494;11.964;2023-03-01T00:40:07;25.00;;;15.53;;
13872;SDS011;7006;51.494;11.964;2023-03-01T00:42:38;30.63;;;17.00;;
13872;SDS011;7006;51.494;11.964;2023-03-01T00:45:07;28.07;;;16.73;;
13872;SDS011;7006;51.494;11.964;2023-03-01T00:47:35;24.37;;;16.47;;
13872;SDS011;7006;51.494;11.964;2023-03-01T00:50:07;30.50;;;17.80;;
13872;SDS011;7006;51.494;11.964;2023-03-01T00:52:35;27.50;;;18.50;;
13872;SDS011;7006;51.494;11.964;2023-03-01T00:55:04;25.60;;;16.30;;
13872;SDS011;7006;51.494;11.964;2023-03-01T00:57:32;27.07;;;17.47;;
13872;SDS011;7006;51.494;11.964;2023-03-01T01:00:01;24.93;;;16.27;;
13872;SDS011;7006;51.494;11.964;2023-03-01T01:02:29;26.20;;;16.70;;
13872;SDS011;7006;51.494;11.964;2023-03-01T01:04:57;24.77;;;16.10;;
13872;SDS011;7006;51.494;11.964;2023-03-01T01:07:28;23.87;;;16.37;;
13872;SDS011;7006;51.494;11.964;2023-03-01T01:09:56;28.43;;;17.20;;
13872;SDS011;7006;51.494;11.964;2023-03-01T01:12:25;27.00;;;17.07;;
13872;SDS011;7006;51.494;11.964;2023-03-01T01:14:53;25.97;;;15.20;;
13872;SDS011;7006;51.494;11.964;2023-03-01T01:17:21;25.10;;;16.73;;
13872;SDS011;7006;51.494;11.964;2023-03-01T01:19:49;24.63;;;16.37;;
13872;SDS011;7006;51.494;11.964;2023-03-01T01:22:17;24.67;;;15.40;;
13872;SDS011;7006;51.494;11.964;2023-03-01T01:24:48;24.10;;;15.10;;
13872;SDS011;7006;51.494;11.964;2023-03-01T01:27:17;22.97;;;15.17;;
13872;SDS011;7006;51.494;11.964;2023-03-01T01:29:45;22.70;;;15.00;;
13872;SDS011;7006;51.494;11.964;2023-03-01T01:32:13;23.17;;;15.20;;
13872;SDS011;7006;51.494;11.964;2023-03-01T01:34:41;24.63;;;15.10;;
13872;SDS011;7006;51.494;11.964;2023-03-01T01:37:09;23.40;;;15.17;;
13872;SDS011;7006;51.494;11.964;2023-03-01T01:39:38;22.07;;;14.47;;
13872;SDS011;7006;51.494;11.964;2023-03-01T01:42:08;23.87;;;15.93;;
13872;SDS011;7006;51.494;11.964;2023-03-01T01:44:39;25.07;;;16.40;;
13872;SDS011;7006;51.494;11.964;2023-03-01T01:47:10;23.53;;;15.73;;
13872;SDS011;7006;51.494;11.964;2023-03-01T01:49:40;27.60;;;17.20;;
13872;SDS011;7006;51.494;11.964;2023-03-01T01:52:11;25.30;;;15.97;;
13872;SDS011;7006;51.494;11.964;2023-03-01T01:54:42;25.67;;;16.60;;
13872;SDS011;7006;51.494;11.964;2023-03-01T01:57:16;24.77;;;15.20;;
13872;SDS011;7006;51.494;11.964;2023-03-01T01:59:47;29.50;;;15.77;;
13872;SDS011;7006;51.494;11.964;2023-03-01T02:02:16;26.07;;;16.03;;
13872;SDS011;7006;51.494;11.964;2023-03-01T02:04:45;22.97;;;15.67;;
13872;SDS011;7006;51.494;11.964;2023-03-01T02:07:15;24.57;;;16.17;;
13872;SDS011;7006;51.494;11.964;2023-03-01T02:09:45;22.40;;;15.67;;
13872;SDS011;7006;51.494;11.964;2023-03-01T02:12:16;25.93;;;14.70;;
13872;SDS011;7006;51.494;11.964;2023-03-01T02:14:45;27.77;;;15.57;;
13872;SDS011;7006;51.494;11.964;2023-03-01T02:17:14;23.50;;;14.43;;
13872;SDS011;7006;51.494;11.964;2023-03-01T02:19:46;23.87;;;14.50;;
13872;SDS011;7006;51.494;11.964;2023-03-01T02:22:18;25.83;;;14.27;;
13872;SDS011;7006;51.494;11.964;2023-03-01T02:24:50;25.50;;;16.00;;
13872;SDS011;7006;51.494;11.964;2023-03-01T02:27:25;23.20;;;15.17;;
13872;SDS011;7006;51.494;11.964;2023-03-01T02:29:57;24.03;;;15.60;;
13872;SDS011;7006;51.494;11.964;2023-03-01T02:32:25;24.23;;;15.47;;
13872;SDS011;7006;51.494;11.964;2023-03-01T02:34:53;22.40;;;15.20;;
13872;SDS011;7006;51.494;11.964;2023-03-01T02:37:23;23.77;;;15.30;;
13872;SDS011;7006;51.494;11.964;2023-03-01T02:39:53;25.60;;;14.93;;
13872;SDS011;7006;51.494;11.964;2023-03-01T02:42:25;21.87;;;13.43;;
13872;SDS011;7006;51.494;11.964;2023-03-01T02:44:53;22.57;;;14.70;;
13872;SDS011;7006;51.494;11.964;2023-03-01T02:47:24;22.13;;;14.23;;
13872;SDS011;7006;51.494;11.964;2023-03-01T02:49:52;25.60;;;14.97;;
13872;SDS011;7006;51.494;11.964;2023-03-01T02:52:27;19.97;;;13.40;;
13872;SDS011;7006;51.494;11.964;2023-03-01T02:54:58;23.77;;;14.00;;
13872;SDS011;7006;51.494;11.964;2023-03-01T02:57:27;20.23;;;13.80;;
13872;SDS011;7006;51.494;11.964;2023-03-01T02:59:56;20.17;;;13.40;;
13872;SDS011;7006;51.494;11.964;2023-03-01T03:02:28;22.70;;;14.00;;
13872;SDS011;7006;51.494;11.964;2023-03-01T03:05:04;20.40;;;13.07;;
13872;SDS011;7006;51.494;11.964;2023-03-01T03:07:33;26.23;;;13.00;;
13872;SDS011;7006;51.494;11.964;2023-03-01T03:10:02;20.97;;;12.77;;
13872;SDS011;7006;51.494;11.964;2023-03-01T03:12:30;19.77;;;13.50;;
13872;SDS011;7006;51.494;11.964;2023-03-01T03:14:58;21.57;;;12.83;;
13872;SDS011;7006;51.494;11.964;2023-03-01T03:17:36;17.10;;;12.10;;
13872;SDS011;7006;51.494;11.964;2023-03-01T03:20:06;21.10;;;12.00;;
13872;SDS011;7006;51.494;11.964;2023-03-01T03:22:36;18.67;;;11.20;;
13872;SDS011;7006;51.494;11.964;2023-03-01T03:25:04;20.87;;;12.50;;
13872;SDS011;7006;51.494;11.964;2023-03-01T03:27:35;18.17;;;12.30;;
13872;SDS011;7006;51.494;11.964;2023-03-01T03:30:04;20.97;;;11.60;;
13872;SDS011;7006;51.494;11.964;2023-03-01T03:32:36;18.70;;;11.83;;
13872;SDS011;7006;51.494;11.964;2023-03-01T03:35:05;19.60;;;12.50;;
13872;SDS011;7006;51.494;11.964;2023-03-01T03:37:35;18.23;;;12.73;;
13872;SDS011;7006;51.494;11.964;2023-03-01T03:40:15;20.67;;;13.17;;
13872;SDS011;7006;51.494;11.964;2023-03-01T03:42:44;16.70;;;11.33;;
13872;SDS011;7006;51.494;11.964;2023-03-01T03:45:13;20.00;;;12.03;;
13872;SDS011;7006;51.494;11.964;2023-03-01T03:47:44;22.03;;;12.90;;
13872;SDS011;7006;51.494;11.964;2023-03-01T03:50:13;22.10;;;13.30;;
13872;SDS011;7006;51.494;11.964;2023-03-01T03:52:41;21.63;;;13.30;;
13872;SDS011;7006;51.494;11.964;2023-03-01T03:55:10;21.70;;;14.20;;
13872;SDS011;7006;51.494;11.964;2023-03-01T03:57:44;19.80;;;12.17;;
13872;SDS011;7006;51.494;11.964;2023-03-01T04:00:17;20.57;;;13.33;;
13872;SDS011;7006;51.494;11.964;2023-03-01T04:02:48;20.53;;;13.43;;
13872;SDS011;7006;51.494;11.964;2023-03-01T04:05:17;21.33;;;14.10;;
13872;SDS011;7006;51.494;11.964;2023-03-01T04:07:46;21.43;;;13.30;;
13872;SDS011;7006;51.494;11.964;2023-03-01T04:10:15;20.40;;;12.97;;
13872;SDS011;7006;51.494;11.964;2023-03-01T04:12:43;19.77;;;12.57;;
13872;SDS011;7006;51.494;11.964;2023-03-01T04:15:11;21.33;;;14.27;;
13872;SDS011;7006;51.494;11.964;2023-03-01T04:17:43;21.90;;;14.53;;
13872;SDS011;7006;51.494;11.964;2023-03-01T04:20:15;20.77;;;13.73;;
13872;SDS011;7006;51.494;11.964;2023-03-01T04:22:50;20.20;;;12.87;;
13872;SDS011;7006;51.494;11.964;2023-03-01T04:25:19;21.83;;;13.50;;
13872;SDS011;7006;51.494;11.964;2023-03-01T04:27:47;24.73;;;15.50;;
13872;SDS011;7006;51.494;11.964;2023-03-01T04:30:15;20.87;;;14.23;;
13872;SDS011;7006;51.494;11.964;2023-03-01T04:32:43;23.97;;;15.17;;
13872;SDS011;7006;51.494;11.964;2023-03-01T04:35:11;29.17;;;15.93;;
13872;SDS011;7006;51.494;11.964;2023-03-01T04:37:42;22.80;;;13.50;;
13872;SDS011;7006;51.494;11.964;2023-03-01T04:40:11;23.07;;;15.13;;
13872;SDS011;7006;51.494;11.964;2023-03-01T04:42:41;25.60;;;14.77;;
13872;SDS011;7006;51.494;11.964;2023-03-01T04:45:10;26.47;;;15.70;;
13872;SDS011;7006;51.494;11.964;2023-03-01T04:47:40;25.10;;;15.47;;
13872;SDS011;7006;51.494;11.964;2023-03-01T04:50:10;25.30;;;15.33;;
13872;SDS011;7006;51.494;11.964;2023-03-01T04:52:38;22.80;;;14.90;;
13872;SDS011;7006;51.494;11.964;2023-03-01T04:55:09;23.93;;;14.80;;
13872;SDS011;7006;51.494;11.964;2023-03-01T04:57:38;29.00;;;15.73;;
13872;SDS011;7006;51.494;11.964;2023-03-01T05:00:07;25.80;;;14.97;;
13872;SDS011;7006;51.494;11.964;2023-03-01T05:02:45;24.50;;;15.00;;
13872;SDS011;7006;51.494;11.964;2023-03-01T05:05:15;22.90;;;13.90;;
13872;SDS011;7006;51.494;11.964;2023-03-01T05:07:43;26.93;;;14.40;;
13872;SDS011;7006;51.494;11.964;2023-03-01T05:10:14;24.47;;;14.67;;
13872;SDS011;7006;51.494;11.964;2023-03-01T05:12:42;29.33;;;15.13;;
13872;SDS011;7006;51.494;11.964;2023-03-01T05:15:11;23.77;;;14.67;;
13872;SDS011;7006;51.494;11.964;2023-03-01T05:17:40;21.97;;;14.63;;
13872;SDS011;7006;51.494;11.964;2023-03-01T05:20:08;23.33;;;15.47;;
13872;SDS011;7006;51.494;11.964;2023-03-01T05:22:37;23.90;;;14.97;;
13872;SDS011;7006;51.494;11.964;2023-03-01T05:25:06;21.17;;;14.23;;
13872;SDS011;7006;51.494;11.964;2023-03-01T05:27:37;21.87;;;14.43;;
13872;SDS011;7006;51.494;11.964;2023-03-01T05:30:06;21.30;;;13.43;;
13872;SDS011;7006;51.494;11.964;2023-03-01T05:32:41;25.23;;;16.27;;
13872;SDS011;7006;51.494;11.964;2023-03-01T05:35:11;25.67;;;15.40;;
13872;SDS011;7006;51.494;11.964;2023-03-01T05:37:41;23.17;;;14.37;;
13872;SDS011;7006;51.494;11.964;2023-03-01T05:40:10;22.90;;;14.10;;
13872;SDS011;7006;51.494;11.964;2023-03-01T05:42:46;29.17;;;15.80;;
13872;SDS011;7006;51.494;11.964;2023-03-01T05:45:15;26.17;;;16.27;;
13872;SDS011;7006;51.494;11.964;2023-03-01T05:47:44;26.07;;;17.60;;
13872;SDS011;7006;51.494;11.964;2023-03-01T05:50:14;29.90;;;18.50;;
13872;SDS011;7006;51.494;11.964;2023-03-01T05:52:44;29.17;;;17.30;;
13872;SDS011;7006;51.494;11.964;2023-03-01T05:55:13;27.60;;;17.03;;
13872;SDS011;7006;51.494;11.964;2023-03-01T05:57:42;24.97;;;15.90;;
13872;SDS011;7006;51.494;11.964;2023-03-01T06:00:18;25.60;;;17.13;;
13872;SDS011;7006;51.494;11.964;2023-03-01T06:02:47;28.13;;;17.13;;
13872;SDS011;7006;51.494;11.964;2023-03-01T06:05:17;33.77;;;19.00;;
13872;SDS011;7006;51.494;11.964;2023-03-01T06:07:45;28.27;;;17.00;;
13872;SDS011;7006;51.494;11.964;2023-03-01T06:10:15;32.20;;;19.57;;
13872;SDS011;7006;51.494;11.964;2023-03-01T06:12:43;27.83;;;17.30;;
13872;SDS011;7006;51.494;11.964;2023-03-01T06:15:15;25.17;;;17.20;;
13872;SDS011;7006;51.494;11.964;2023-03-01T06:17:44;29.40;;;19.97;;
13872;SDS011;7006;51.494;11.964;2023-03-01T06:20:13;33.37;;;19.70;;
13872;SDS011;7006;51.494;11.964;2023-03-01T06:22:42;29.27;;;18.40;;
13872;SDS011;7006;51.494;11.964;2023-03-01T06:25:11;27.30;;;18.30;;
13872;SDS011;7006;51.494;11.964;2023-03-01T06:27:41;28.00;;;17.43;;
13872;SDS011;7006;51.494;11.964;2023-03-01T06:30:10;23.50;;;15.20;;
13872;SDS011;7006;51.494;11.964;2023-03-01T06:32:41;27.30;;;16.50;;
13872;SDS011;7006;51.494;11.964;2023-03-01T06:35:10;22.50;;;15.40;;
13872;SDS011;7006;51.494;11.964;2023-03-01T06:37:38;25.17;;;17.10;;
13872;SDS011;7006;51.494;11.964;2023-03-01T06:40:08;23.83;;;14.77;;
13872;SDS011;7006;51.494;11.964;2023-03-01T06:42:39;27.07;;;14.93;;
13872;SDS011;7006;51.494;11.964;2023-03-01T06:45:08;24.07;;;16.33;;
13872;SDS011;7006;51.494;11.964;2023-03-01T06:47:36;26.93;;;17.10;;
13872;SDS011;7006;51.494;11.964;2023-03-01T06:50:08;29.37;;;17.57;;
13872;SDS011;7006;51.494;11.964;2023-03-01T06:52:36;26.43;;;17.37;;
13872;SDS011;7006;51.494;11.964;2023-03-01T06:55:05;28.10;;;16.70;;
13872;SDS011;7006;51.494;11.964;2023-03-01T06:57:33;33.63;;;19.50;;
13872;SDS011;7006;51.494;11.964;2023-03-01T07:00:02;26.87;;;17.57;;
13872;SDS011;7006;51.494;11.964;2023-03-01T07:02:30;25.57;;;18.13;;
13872;SDS011;7006;51.494;11.964;2023-03-01T07:04:59;27.37;;;16.97;;
13872;SDS011;7006;51.494;11.964;2023-03-01T07:07:29;25.97;;;16.47;;
13872;SDS011;7006;51.494;11.964;2023-03-01T07:09:58;26.50;;;15.93;;
13872;SDS011;7006;51.494;11.964;2023-03-01T07:12:26;28.30;;;16.13;;
13872;SDS011;7006;51.494;11.964;2023-03-01T07:14:54;27.00;;;16.03;;
13872;SDS011;7006;51.494;11.964;2023-03-01T07:17:22;25.07;;;16.80;;
13872;SDS011;7006;51.494;11.964;2023-03-01T07:19:51;28.97;;;17.60;;
13872;SDS011;7006;51.494;11.964;2023-03-01T07:22:19;27.83;;;18.00;;
13872;SDS011;7006;51.494;11.964;2023-03-01T07:24:50;26.93;;;17.10;;
13872;SDS011;7006;51.494;11.964;2023-03-01T07:27:18;29.03;;;18.33;;
13872;SDS011;7006;51.494;11.964;2023-03-01T07:29:46;51.23;;;22.90;;
13872;SDS011;7006;51.494;11.964;2023-03-01T07:32:14;25.67;;;16.50;;
13872;SDS011;7006;51.494;11.964;2023-03-01T07:34:42;26.67;;;18.00;;
13872;SDS011;7006;51.494;11.964;2023-03-01T07:37:10;29.63;;;19.10;;
13872;SDS011;7006;51.494;11.964;2023-03-01T07:39:39;24.03;;;17.97;;
13872;SDS011;7006;51.494;11.964;2023-03-01T07:42:10;31.93;;;21.37;;
13872;SDS011;7006;51.494;11.964;2023-03-01T07:44:38;34.93;;;21.17;;
13872;SDS011;7006;51.494;11.964;2023-03-01T07:47:06;26.80;;;18.97;;
13872;SDS011;7006;51.494;11.964;2023-03-01T07:49:34;28.03;;;17.50;;
13872;SDS011;7006;51.494;11.964;2023-03-01T07:52:03;24.70;;;16.77;;
13872;SDS011;7006;51.494;11.964;2023-03-01T07:54:31;22.17;;;17.07;;
13872;SDS011;7006;51.494;11.964;2023-03-01T07:56:59;25.10;;;17.60;;
13872;SDS011;7006;51.494;11.964;2023-03-01T07:59:30;23.97;;;17.10;;
13872;SDS011;7006;51.494;11.964;2023-03-01T08:01:58;24.03;;;16.90;;
13872;SDS011;7006;51.494;11.964;2023-03-01T08:04:27;20.43;;;15.80;;
13872;SDS011;7006;51.494;11.964;2023-03-01T08:06:55;20.30;;;15.67;;
13872;SDS011;7006;51.494;11.964;2023-03-01T08:09:23;20.30;;;15.67;;
13872;SDS011;7006;51.494;11.964;2023-03-01T08:11:51;19.93;;;15.47;;
13872;SDS011;7006;51.494;11.964;2023-03-01T08:14:20;21.13;;;15.50;;
13872;SDS011;7006;51.494;11.964;2023-03-01T08:16:51;18.70;;;14.13;;
13872;SDS011;7006;51.494;11.964;2023-03-01T08:19:20;18.70;;;12.97;;
13872;SDS011;7006;51.494;11.964;2023-03-01T08:21:48;19.00;;;14.00;;
13872;SDS011;7006;51.494;11.964;2023-03-01T08:24:16;21.80;;;13.93;;
13872;SDS011;7006;51.494;11.964;2023-03-01T08:26:44;19.50;;;13.17;;
13872;SDS011;7006;51.494;11.964;2023-03-01T08:29:12;17.03;;;14.33;;
13872;SDS011;7006;51.494;11.964;2023-03-01T08:31:41;18.50;;;13.53;;
13872;SDS011;7006;51.494;11.964;2023-03-01T08:34:13;16.00;;;13.57;;
13872;SDS011;7006;51.494;11.964;2023-03-01T08:36:42;17.00;;;12.13;;
13872;SDS011;7006;51.494;11.964;2023-03-01T08:39:11;22.73;;;15.20;;
13872;SDS011;7006;51.494;11.964;2023-03-01T08:41:39;17.50;;;13.80;;
13872;SDS011;7006;51.494;11.964;2023-03-01T08:44:09;21.70;;;14.47;;
13872;SDS011;7006;51.494;11.964;2023-03-01T08:46:38;18.67;;;13.93;;
13872;SDS011;7006;51.494;11.964;2023-03-01T08:49:07;20.63;;;15.37;;
13872;SDS011;7006;51.494;11.964;2023-03-01T08:51:38;20.63;;;13.67;;
13872;SDS011;7006;51.494;11.964;2023-03-01T08:54:07;24.97;;;14.93;;
13872;SDS011;7006;51.494;11.964;2023-03-01T08:56:35;20.37;;;13.67;;
13872;SDS011;7006;51.494;11.964;2023-03-01T08:59:04;18.23;;;13.60;;
13872;SDS011;7006;51.494;11.964;2023-03-01T09:01:32;18.80;;;14.00;;
13872;SDS011;7006;51.494;11.964;2023-03-01T09:04:02;20.83;;;15.47;;
13872;SDS011;7006;51.494;11.964;2023-03-01T09:06:30;20.23;;;14.30;;
13872;SDS011;7006;51.494;11.964;2023-03-01T09:09:03;19.83;;;15.97;;
13872;SDS011;7006;51.494;11.964;2023-03-01T09:11:32;21.00;;;15.57;;
13872;SDS011;7006;51.494;11.964;2023-03-01T09:14:00;21.50;;;14.83;;
13872;SDS011;7006;51.494;11.964;2023-03-01T09:16:28;18.50;;;13.90;;
13872;SDS011;7006;51.494;11.964;2023-03-01T09:19:01;18.93;;;16.10;;
13872;SDS011;7006;51.494;11.964;2023-03-01T09:21:29;21.00;;;14.73;;
13872;SDS011;7006;51.494;11.964;2023-03-01T09:23:57;19.60;;;14.50;;
13872;SDS011;7006;51.494;11.964;2023-03-01T09:26:28;24.43;;;17.83;;
13872;SDS011;7006;51.494;11.964;2023-03-01T09:28:57;22.37;;;15.70;;
13872;SDS011;7006;51.494;11.964;2023-03-01T09:31:25;17.53;;;14.43;;
13872;SDS011;7006;51.494;11.964;2023-03-01T09:33:53;17.63;;;14.90;;
13872;SDS011;7006;51.494;11.964;2023-03-01T09:36:22;22.40;;;15.20;;
13872;SDS011;7006;51.494;11.964;2023-03-01T09:38:51;18.20;;;15.00;;
13872;SDS011;7006;51.494;11.964;2023-03-01T09:41:26;19.90;;;15.77;;
13872;SDS011;7006;51.494;11.964;2023-03-01T09:44:05;20.30;;;15.60;;
13872;SDS011;7006;51.494;11.964;2023-03-01T09:46:40;17.33;;;12.67;;
13872;SDS011;7006;51.494;11.964;2023-03-01T09:49:10;17.33;;;13.60;;
13872;SDS011;7006;51.494;11.964;2023-03-01T09:51:42;21.83;;;15.27;;
13872;SDS011;7006;51.494;11.964;2023-03-01T09:54:10;19.00;;;15.37;;
13872;SDS011;7006;51.494;11.964;2023-03-01T09:56:40;23.67;;;16.67;;
13872;SDS011;7006;51.494;11.964;2023-03-01T09:59:15;22.83;;;16.90;;
13872;SDS011;7006;51.494;11.964;2023-03-01T10:01:46;20.53;;;16.17;;
13872;SDS011;7006;51.494;11.964;2023-03-01T10:04:24;20.53;;;15.77;;
13872;SDS011;7006;51.494;11.964;2023-03-01T10:06:58;20.50;;;15.93;;
13872;SDS011;7006;51.494;11.964;2023-03-01T10:09:32;19.70;;;14.27;;
13872;SDS011;7006;51.494;11.964;2023-03-01T10:12:02;23.23;;;16.80;;
13872;SDS011;7006;51.494;11.964;2023-03-01T10:14:34;19.40;;;15.40;;
13872;SDS011;7006;51.494;11.964;2023-03-01T10:17:04;23.50;;;14.77;;
13872;SDS011;7006;51.494;11.964;2023-03-01T10:19:33;19.17;;;14.53;;
13872;SDS011;7006;51.494;11.964;2023-03-01T10:22:05;20.40;;;15.90;;
13872;SDS011;7006;51.494;11.964;2023-03-01T10:24:37;17.50;;;14.70;;
13872;SDS011;7006;51.494;11.964;2023-03-01T10:27:06;21.60;;;15.20;;
13872;SDS011;7006;51.494;11.964;2023-03-01T10:29:40;22.87;;;15.80;;
13872;SDS011;7006;51.494;11.964;2023-03-01T10:32:09;19.73;;;14.10;;
13872;SDS011;7006;51.494;11.964;2023-03-01T10:34:38;19.40;;;14.97;;
13872;SDS011;7006;51.494;11.964;2023-03-01T10:37:10;19.67;;;15.73;;
13872;SDS011;7006;51.494;11.964;2023-03-01T10:39:53;19.40;;;15.10;;
13872;SDS011;7006;51.494;11.964;2023-03-01T10:42:25;19.00;;;14.60;;
13872;SDS011;7006;51.494;11.964;2023-03-01T10:44:56;21.30;;;17.47;;
13872;SDS011;7006;51.494;11.964;2023-03-01T10:47:25;18.23;;;14.60;;
13872;SDS011;7006;51.494;11.964;2023-03-01T10:49:58;24.23;;;15.60;;
13872;SDS011;7006;51.494;11.964;2023-03-01T10:52:30;19.07;;;14.93;;
13872;SDS011;7006;51.494;11.964;2023-03-01T10:54:59;20.60;;;15.70;;
13872;SDS011;7006;51.494;11.964;2023-03-01T10:57:30;22.30;;;15.13;;
13872;SDS011;7006;51.494;11.964;2023-03-01T11:00:13;19.50;;;14.97;;
13872;SDS011;7006;51.494;11.964;2023-03-01T11:02:45;17.67;;;13.50;;
13872;SDS011;7006;51.494;11.964;2023-03-01T11:05:16;22.37;;;13.93;;
13872;SDS011;7006;51.494;11.964;2023-03-01T11:07:48;18.57;;;14.53;;
13872;SDS011;7006;51.494;11.964;2023-03-01T11:10:20;21.13;;;16.07;;
13872;SDS011;7006;51.494;11.964;2023-03-01T11:12:50;21.00;;;14.33;;
13872;SDS011;7006;51.494;11.964;2023-03-01T11:15:22;18.00;;;12.77;;
13872;SDS011;7006;51.494;11.964;2023-03-01T11:17:51;19.17;;;13.30;;
13872;SDS011;7006;51.494;11.964;2023-03-01T11:20:24;15.63;;;12.07;;
13872;SDS011;7006;51.494;11.964;2023-03-01T11:22:53;14.17;;;11.10;;
13872;SDS011;7006;51.494;11.964;2023-03-01T11:25:23;14.03;;;10.70;;
13872;SDS011;7006;51.494;11.964;2023-03-01T11:27:52;15.93;;;11.33;;
13872;SDS011;7006;51.494;11.964;2023-03-01T11:30:26;13.57;;;11.00;;
13872;SDS011;7006;51.494;11.964;2023-03-01T11:32:59;17.27;;;13.00;;
13872;SDS011;7006;51.494;11.964;2023-03-01T11:35:29;15.20;;;11.43;;
13872;SDS011;7006;51.494;11.964;2023-03-01T11:37:59;13.07;;;10.03;;
13872;SDS011;7006;51.494;11.964;2023-03-01T11:40:32;14.93;;;11.00;;
13872;SDS011;7006;51.494;11.964;2023-03-01T11:43:04;17.10;;;12.23;;
13872;SDS011;7006;51.494;11.964;2023-03-01T11:45:39;14.27;;;10.80;;
13872;SDS011;7006;51.494;11.964;2023-03-01T11:48:17;14.37;;;11.13;;
13872;SDS011;7006;51.494;11.964;2023-03-01T11:50:51;13.33;;;9.57;;
13872;SDS011;7006;51.494;11.964;2023-03-01T11:53:24;15.33;;;11.00;;
13872;SDS011;7006;51.494;11.964;2023-03-01T11:55:58;13.60;;;10.13;;
13872;SDS011;7006;51.494;11.964;2023-03-01T11:58:33;12.57;;;10.20;;
13872;SDS011;7006;51.494;11.964;2023-03-01T12:01:10;13.40;;;9.90;;
13872;SDS011;7006;51.494;11.964;2023-03-01T12:03:45;17.30;;;12.60;;
13872;SDS011;7006;51.494;11.964;2023-03-01T12:06:24;14.23;;;10.80;;
13872;SDS011;7006;51.494;11.964;2023-03-01T12:08:58;13.20;;;10.20;;
13872;SDS011;7006;51.494;11.964;2023-03-01T12:11:32;13.80;;;10.87;;
13872;SDS011;7006;51.494;11.964;2023-03-01T12:14:10;14.20;;;10.60;;
13872;SDS011;7006;51.494;11.964;2023-03-01T12:16:51;16.70;;;11.20;;
13872;SDS011;7006;51.494;11.964;2023-03-01T12:19:27;12.40;;;10.23;;
13872;SDS011;7006;51.494;11.964;2023-03-01T12:22:03;12.73;;;9.67;;
13872;SDS011;7006;51.494;11.964;2023-03-01T12:24:41;13.97;;;10.33;;
13872;SDS011;7006;51.494;11.964;2023-03-01T12:27:15;13.80;;;10.27;;
13872;SDS011;7006;51.494;11.964;2023-03-01T12:29:46;18.80;;;13.90;;
13872;SDS011;7006;51.494;11.964;2023-03-01T12:32:24;18.90;;;13.20;;
13872;SDS011;7006;51.494;11.964;2023-03-01T12:34:59;18.30;;;12.97;;
13872;SDS011;7006;51.494;11.964;2023-03-01T12:37:35;12.37;;;10.03;;
13872;SDS011;7006;51.494;11.964;2023-03-01T12:40:13;14.47;;;11.47;;
13872;SDS011;7006;51.494;11.964;2023-03-01T12:42:45;12.30;;;9.80;;
13872;SDS011;7006;51.494;11.964;2023-03-01T12:45:30;13.70;;;10.57;;
13872;SDS011;7006;51.494;11.964;2023-03-01T12:48:10;13.07;;;9.07;;
13872;SDS011;7006;51.494;11.964;2023-03-01T12:50:42;18.70;;;10.80;;
13872;SDS011;7006;51.494;11.964;2023-03-01T12:53:16;11.67;;;9.03;;
13872;SDS011;7006;51.494;11.964;2023-03-01T12:55:45;12.37;;;10.13;;
13872;SDS011;7006;51.494;11.964;2023-03-01T12:58:17;13.07;;;9.17;;
13872;SDS011;7006;51.494;11.964;2023-03-01T13:00:51;13.47;;;9.33;;
13872;SDS011;7006;51.494;11.964;2023-03-01T13:03:26;12.13;;;9.60;;
13872;SDS011;7006;51.494;11.964;2023-03-01T13:06:00;15.93;;;10.00;;
13872;SDS011;7006;51.494;11.964;2023-03-01T13:08:33;13.03;;;9.27;;
13872;SDS011;7006;51.494;11.964;2023-03-01T13:11:05;14.30;;;10.10;;
13872;SDS011;7006;51.494;11.964;2023-03-01T13:13:33;11.97;;;8.77;;
13872;SDS011;7006;51.494;11.964;2023-03-01T13:18:47;13.50;;;10.20;;
13872;SDS011;7006;51.494;11.964;2023-03-01T13:21:21;12.37;;;9.10;;
13872;SDS011;7006;51.494;11.964;2023-03-01T13:23:56;13.87;;;9.20;;
13872;SDS011;7006;51.494;11.964;2023-03-01T13:26:25;11.53;;;9.17;;
13872;SDS011;7006;51.494;11.964;2023-03-01T13:28:54;15.23;;;9.50;;
13872;SDS011;7006;51.494;11.964;2023-03-01T13:34:20;11.90;;;9.43;;
13872;SDS011;7006;51.494;11.964;2023-03-01T13:37:10;13.07;;;9.57;;
13872;SDS011;7006;51.494;11.964;2023-03-01T13:39:46;10.40;;;8.50;;
13872;SDS011;7006;51.494;11.964;2023-03-01T13:42:29;9.87;;;7.80;;
13872;SDS011;7006;51.494;11.964;2023-03-01T13:44:58;15.40;;;8.80;;
13872;SDS011;7006;51.494;11.964;2023-03-01T13:47:26;11.40;;;8.50;;
13872;SDS011;7006;51.494;11.964;2023-03-01T13:49:59;11.47;;;8.77;;
13872;SDS011;7006;51.494;11.964;2023-03-01T13:52:34;11.53;;;9.13;;
13872;SDS011;7006;51.494;11.964;2023-03-01T13:55:05;10.87;;;8.70;;
13872;SDS011;7006;51.494;11.964;2023-03-01T13:57:35;12.60;;;10.50;;
13872;SDS011;7006;51.494;11.964;2023-03-01T14:00:05;8.73;;;7.50;;
13872;SDS011;7006;51.494;11.964;2023-03-01T14:02:33;11.37;;;7.37;;
13872;SDS011;7006;51.494;11.964;2023-03-01T14:05:05;10.70;;;8.20;;
13872;SDS011;7006;51.494;11.964;2023-03-01T14:07:37;11.60;;;8.43;;
13872;SDS011;7006;51.494;11.964;2023-03-01T14:10:06;11.60;;;8.40;;
13872;SDS011;7006;51.494;11.964;2023-03-01T14:12:38;12.07;;;8.30;;
13872;SDS011;7006;51.494;11.964;2023-03-01T14:15:08;9.87;;;7.10;;
13872;SDS011;7006;51.494;11.964;2023-03-01T14:17:46;9.03;;;6.97;;
13872;SDS011;7006;51.494;11.964;2023-03-01T14:20:20;10.10;;;7.00;;
13872;SDS011;7006;51.494;11.964;2023-03-01T14:22:50;8.03;;;6.23;;
13872;SDS011;7006;51.494;11.964;2023-03-01T14:25:21;8.17;;;6.50;;
13872;SDS011;7006;51.494;11.964;2023-03-01T14:27:56;7.27;;;5.93;;
13872;SDS011;7006;51.494;11.964;2023-03-01T14:30:25;7.93;;;5.83;;
13872;SDS011;7006;51.494;11.964;2023-03-01T14:32:55;7.43;;;5.80;;
13872;SDS011;7006;51.494;11.964;2023-03-01T14:35:33;8.10;;;6.40;;
13872;SDS011;7006;51.494;11.964;2023-03-01T14:38:02;12.97;;;6.50;;
13872;SDS011;7006;51.494;11.964;2023-03-01T14:40:32;9.80;;;5.80;;
13872;SDS011;7006;51.494;11.964;2023-03-01T14:43:01;10.13;;;5.17;;
13872;SDS011;7006;51.494;11.964;2023-03-01T14:45:30;7.77;;;5.77;;
13872;SDS011;7006;51.494;11.964;2023-03-01T14:47:59;7.83;;;5.80;;